Time;durP1;ratioP1;P1;durP2;ratioP2;P2;SDS_P1;SDS_P2;PMS_P1;PMS_P2;Temp;Humidity;BMP_temperature;BMP_pressure;BME280_temperature;BME280_humidity;BME280_pressure;Samples;Min_cycle;Max_cycle;Signal;HPM_P1;HPM_P2
2021/09/21 00:00:54;;;;;;;;;;;;;;;11.01;100.00;101424.38;1652491;86;20090;-79
2021/09/21 00:03:20;;;;;;;;;;;;;;;11.03;100.00;101434.70;1646116;86;20163;-84
2021/09/21 00:05:46;;;;;;;;;;;;;;;11.03;100.00;101439.89;1652802;86;21161;-83
2021/09/21 00:08:12;;;;;;;;;;;;;;;11.00;100.00;101450.00;1653399;86;20168;-79
2021/09/21 00:10:40;;;;;;;;;;;;;;;10.99;100.00;101458.70;1659040;85;20464;-83
2021/09/21 00:13:07;;;;;;;;;;;;;;;10.98;100.00;101453.58;1651630;86;20437;-77
2021/09/21 00:15:35;;;;;;;;;;;;;;;10.98;100.00;101463.97;1653435;86;20157;-76
2021/09/21 00:18:02;;;;;;;;;;;;;;;10.98;100.00;101457.47;1651070;87;21172;-75
2021/09/21 00:20:30;;;;;;;;;;;;;;;10.99;100.00;101466.49;1651019;87;20441;-76
2021/09/21 00:22:56;;;;;;;;;;;;;;;10.99;100.00;101455.27;1653489;86;20154;-73
2021/09/21 00:25:23;;;;;;;;;;;;;;;10.97;100.00;101465.75;1651254;87;20154;-74
2021/09/21 00:27:49;;;;;;;;;;;;;;;10.97;100.00;101464.45;1659400;86;20126;-84
2021/09/21 00:30:19;;;;;;;;;;;;;;;10.97;100.00;101470.11;1653785;85;21126;-77
2021/09/21 00:32:49;;;;;;;;;;;;;;;10.96;100.00;101469.27;1657631;86;20123;-82
2021/09/21 00:35:14;;;;;;;;;;;;;;;10.98;100.00;101472.60;1653561;86;20127;-74
2021/09/21 00:37:40;;;;;;;;;;;;;;;10.95;100.00;101470.17;1651211;87;20082;-78
2021/09/21 00:40:08;;;;;;;;;;;;;;;10.91;100.00;101477.74;1657396;86;20103;-76
2021/09/21 00:42:39;;;;;;;;;;;;;;;10.88;100.00;101485.70;1653377;86;21162;-88
2021/09/21 00:45:06;;;;;;;;;;;;;;;10.85;100.00;101496.74;1657800;85;20170;-78
2021/09/21 00:47:34;;;;;;;;;;;;;;;10.85;100.00;101500.64;1621104;87;20656;-74
2021/09/21 00:50:01;;;;;;;;;;;;;;;10.83;100.00;101508.49;1632815;87;20674;-80
2021/09/21 00:52:28;;;;;;;;;;;;;;;10.84;100.00;101502.39;1635903;84;20178;-77
2021/09/21 00:54:56;;;;;;;;;;;;;;;10.85;100.00;101504.53;1650877;87;21191;-82
2021/09/21 00:57:22;;;;;;;;;;;;;;;10.85;100.00;101510.53;1654420;86;20157;-80
2021/09/21 00:59:49;;;;;;;;;;;;;;;10.81;100.00;101510.34;1654506;86;20090;-80
2021/09/21 01:02:15;;;;;;;;;;;;;;;10.72;100.00;101516.48;1653861;86;20468;-80
2021/09/21 01:04:41;;;;;;;;;;;;;;;10.62;100.00;101522.14;1659632;86;20164;-79
2021/09/21 01:07:09;;;;;;;;;;;;;;;10.58;100.00;101514.16;1658964;85;21193;-78
2021/09/21 01:09:39;;;;;;;;;;;;;;;10.56;100.00;101515.97;1619734;85;20517;-81
2021/09/21 01:12:05;;;;;;;;;;;;;;;10.57;100.00;101512.47;1620052;86;20487;-78
2021/09/21 01:14:32;;;;;;;;;;;;;;;10.59;100.00;101518.89;1646590;86;20222;-79
2021/09/21 01:16:59;;;;;;;;;;;;;;;10.60;100.00;101524.44;1655252;86;20136;-75
2021/09/21 01:19:27;;;;;;;;;;;;;;;10.61;100.00;101517.05;1651658;86;21178;-81
2021/09/21 01:21:54;;;;;;;;;;;;;;;10.57;100.00;101517.66;1652945;86;20126;-77
2021/09/21 01:24:22;;;;;;;;;;;;;;;10.51;100.00;101523.17;1653824;86;20562;-78
2021/09/21 01:26:49;;;;;;;;;;;;;;;10.49;100.00;101525.47;1652128;86;20145;-80
2021/09/21 01:29:15;;;;;;;;;;;;;;;10.50;100.00;101518.89;1651370;86;20174;-79
2021/09/21 01:31:42;;;;;;;;;;;;;;;10.54;100.00;101526.06;1652852;86;21116;-75
2021/09/21 01:34:09;;;;;;;;;;;;;;;10.56;100.00;101521.16;1657608;86;20245;-75
2021/09/21 01:36:36;;;;;;;;;;;;;;;10.61;100.00;101528.72;1651312;86;20127;-78
2021/09/21 01:39:03;;;;;;;;;;;;;;;10.67;100.00;101523.66;1650998;87;20636;-77
2021/09/21 01:41:31;;;;;;;;;;;;;;;10.73;100.00;101520.73;1651175;85;20436;-74
2021/09/21 01:43:57;;;;;;;;;;;;;;;10.80;100.00;101525.53;1651192;87;21547;-77
2021/09/21 01:46:24;;;;;;;;;;;;;;;10.87;100.00;101526.05;1662004;86;20121;-75
2021/09/21 01:48:50;;;;;;;;;;;;;;;10.90;100.00;101527.19;1659929;86;20106;-78
2021/09/21 01:51:41;;;;;;;;;;;;;;;10.94;100.00;101530.00;1652975;85;20094;-77
2021/09/21 01:59:15;;;;;;;;;;;;;;;11.04;100.00;101528.59;1655919;86;20117;-77
2021/09/21 02:01:41;;;;;;;;;;;;;;;11.08;100.00;101531.38;1650845;86;20078;-75
2021/09/21 02:04:08;;;;;;;;;;;;;;;11.12;100.00;101539.39;1651380;87;20126;-80
2021/09/21 02:06:37;;;;;;;;;;;;;;;11.13;100.00;101545.81;1645412;86;20440;-74
2021/09/21 02:09:06;;;;;;;;;;;;;;;11.16;100.00;101543.51;1660285;86;20125;-77
2021/09/21 02:11:33;;;;;;;;;;;;;;;11.20;100.00;101545.48;1661513;86;20154;-75
2021/09/21 02:14:02;;;;;;;;;;;;;;;11.23;100.00;101538.81;1652155;86;20705;-76
2021/09/21 02:16:30;;;;;;;;;;;;;;;11.27;100.00;101539.84;1651259;87;20150;-78
2021/09/21 02:18:59;;;;;;;;;;;;;;;11.32;100.00;101536.55;1637135;85;20430;-79
2021/09/21 02:21:27;;;;;;;;;;;;;;;11.38;100.00;101542.70;1633998;87;20152;-79
2021/09/21 02:23:56;;;;;;;;;;;;;;;11.41;100.00;101540.39;1650430;86;20440;-81
2021/09/21 02:26:24;;;;;;;;;;;;;;;11.44;100.00;101542.81;1650085;85;20173;-77
2021/09/21 02:28:52;;;;;;;;;;;;;;;11.42;100.00;101537.69;1652541;85;20142;-79
2021/09/21 02:31:21;;;;;;;;;;;;;;;11.43;100.00;101547.62;1651313;85;20239;-80
2021/09/21 02:33:49;;;;;;;;;;;;;;;11.45;100.00;101554.90;1655887;86;20086;-78
2021/09/21 02:36:15;;;;;;;;;;;;;;;11.44;100.00;101554.05;1652991;86;20106;-78
2021/09/21 02:38:42;;;;;;;;;;;;;;;11.45;100.00;101562.24;1653190;86;20173;-78
2021/09/21 02:41:08;;;;;;;;;;;;;;;11.47;100.00;101553.05;1662497;86;20170;-78
2021/09/21 02:43:35;;;;;;;;;;;;;;;11.50;100.00;101558.91;1644586;86;20150;-80
2021/09/21 02:46:01;;;;;;;;;;;;;;;11.54;100.00;101560.88;1654758;86;21897;-78
2021/09/21 02:48:29;;;;;;;;;;;;;;;11.53;100.00;101563.94;1660426;86;20098;-78
2021/09/21 02:50:55;;;;;;;;;;;;;;;11.53;100.00;101563.94;1653571;86;20146;-78
2021/09/21 02:53:22;;;;;;;;;;;;;;;11.51;100.00;101563.66;1651017;86;20115;-77
2021/09/21 02:55:49;;;;;;;;;;;;;;;11.50;100.00;101569.77;1651141;87;20098;-77
2021/09/21 02:58:16;;;;;;;;;;;;;;;11.48;100.00;101561.23;1651038;87;21208;-77
2021/09/21 03:00:43;;;;;;;;;;;;;;;11.47;100.00;101568.64;1652110;86;20149;-77
2021/09/21 03:03:10;;;;;;;;;;;;;;;11.46;100.00;101577.34;1652563;86;20094;-77
2021/09/21 03:05:44;;;;;;;;;;;;;;;11.44;100.00;101580.50;1660079;86;20226;-76
2021/09/21 03:08:12;;;;;;;;;;;;;;;11.44;100.00;101577.45;1647752;85;20441;-77
2021/09/21 03:10:51;;;;;;;;;;;;;;;11.45;100.00;101581.73;1651712;86;21918;-76
2021/09/21 03:18:32;;;;;;;;;;;;;;;11.41;100.00;101576.32;1651167;85;20358;-76
2021/09/21 03:20:59;;;;;;;;;;;;;;;11.38;100.00;101582.98;1654670;86;20697;-77
2021/09/21 03:23:27;;;;;;;;;;;;;;;11.36;100.00;101575.72;1651129;87;20147;-77
2021/09/21 03:25:55;;;;;;;;;;;;;;;11.36;100.00;101584.00;1660817;86;20125;-75
2021/09/21 03:28:22;;;;;;;;;;;;;;;11.36;100.00;101586.59;1651244;87;20165;-77
2021/09/21 03:30:49;;;;;;;;;;;;;;;11.35;100.00;101584.45;1651074;87;20249;-76
2021/09/21 03:33:17;;;;;;;;;;;;;;;11.35;100.00;101601.80;1653255;85;20673;-78
2021/09/21 03:35:44;;;;;;;;;;;;;;;11.30;100.00;101606.39;1651050;87;21217;-80
2021/09/21 03:38:11;;;;;;;;;;;;;;;11.23;100.00;101616.27;1655203;86;20178;-80
2021/09/21 03:40:38;;;;;;;;;;;;;;;11.17;100.00;101617.90;1653485;86;20168;-80
2021/09/21 03:43:04;;;;;;;;;;;;;;;11.12;100.00;101614.27;1656491;86;20082;-79
2021/09/21 03:45:32;;;;;;;;;;;;;;;11.07;100.00;101621.45;1651277;85;20510;-77
2021/09/21 03:47:59;;;;;;;;;;;;;;;11.03;100.00;101620.41;1652735;86;21837;-83
2021/09/21 03:50:26;;;;;;;;;;;;;;;11.01;100.00;101619.17;1656364;86;37420;-75
2021/09/21 03:52:52;;;;;;;;;;;;;;;10.98;100.00;101619.79;1651117;87;20153;-86
2021/09/21 03:55:21;;;;;;;;;;;;;;;10.94;100.00;101624.79;1626802;85;20113;-76
2021/09/21 03:57:47;;;;;;;;;;;;;;;10.87;100.00;101626.02;1650926;86;20138;-78
2021/09/21 04:00:15;;;;;;;;;;;;;;;10.80;100.00;101628.09;1663337;86;21567;-75
2021/09/21 04:02:41;;;;;;;;;;;;;;;10.70;100.00;101624.28;1655449;85;20154;-81
2021/09/21 04:05:09;;;;;;;;;;;;;;;10.62;100.00;101625.96;1658622;86;20178;-81
2021/09/21 04:07:36;;;;;;;;;;;;;;;10.59;100.00;101634.39;1644776;86;20117;-77
2021/09/21 04:10:04;;;;;;;;;;;;;;;10.53;100.00;101634.67;1651242;85;20171;-77
2021/09/21 04:12:35;;;;;;;;;;;;;;;10.48;99.75;101636.67;1659146;85;20968;-80
2021/09/21 04:15:04;;;;;;;;;;;;;;;10.45;99.83;101638.97;1645610;85;20464;-78
2021/09/21 04:17:30;;;;;;;;;;;;;;;10.42;100.00;101648.66;1651203;86;20092;-77
2021/09/21 04:19:57;;;;;;;;;;;;;;;10.36;99.84;101647.21;1653547;86;20464;-80
2021/09/21 04:22:27;;;;;;;;;;;;;;;10.31;99.86;101647.88;1653266;86;20174;-82
2021/09/21 04:24:55;;;;;;;;;;;;;;;10.26;98.87;101651.17;1652673;86;21081;-76
2021/09/21 04:27:22;;;;;;;;;;;;;;;10.23;97.85;101660.85;1637893;86;20349;-82
2021/09/21 04:29:53;;;;;;;;;;;;;;;10.19;97.19;101657.56;1649497;86;20123;-80
2021/09/21 04:32:18;;;;;;;;;;;;;;;10.14;97.05;101664.74;1665201;84;20141;-78
2021/09/21 04:34:49;;;;;;;;;;;;;;;10.10;97.32;101661.88;1653298;86;20127;-73
2021/09/21 04:37:15;;;;;;;;;;;;;;;10.06;97.55;101664.22;1651352;87;21220;-78
2021/09/21 04:39:42;;;;;;;;;;;;;;;10.03;97.52;101665.22;1646704;86;20102;-77
2021/09/21 04:42:10;;;;;;;;;;;;;;;10.01;97.41;101666.20;1651322;85;20086;-75
2021/09/21 04:44:38;;;;;;;;;;;;;;;9.99;97.67;101673.20;1650928;86;20147;-81
2021/09/21 04:47:06;;;;;;;;;;;;;;;9.99;98.04;101670.60;1653316;86;20134;-75
2021/09/21 04:49:34;;;;;;;;;;;;;;;9.97;98.24;101673.29;1651219;86;21210;-80
2021/09/21 04:52:02;;;;;;;;;;;;;;;9.99;98.29;101677.94;1640067;86;20196;-74
2021/09/21 04:54:28;;;;;;;;;;;;;;;10.00;97.44;101678.78;1647726;87;20130;-77
2021/09/21 04:56:56;;;;;;;;;;;;;;;9.99;98.15;101682.27;1651190;85;20098;-79
2021/09/21 04:59:26;;;;;;;;;;;;;;;10.02;98.03;101682.13;1652022;85;20451;-79
2021/09/21 05:01:53;;;;;;;;;;;;;;;10.02;97.94;101685.56;1656737;86;22006;-81
2021/09/21 05:04:20;;;;;;;;;;;;;;;10.03;97.98;101687.25;1643794;86;20123;-77
2021/09/21 05:06:46;;;;;;;;;;;;;;;10.04;97.45;101695.88;1646266;86;20143;-81
2021/09/21 05:09:15;;;;;;;;;;;;;;;10.06;96.56;101700.08;1641372;85;20110;-79
2021/09/21 05:11:46;;;;;;;;;;;;;;;10.08;96.34;101703.42;1651098;86;20483;-81
2021/09/21 05:14:14;;;;;;;;;;;;;;;10.12;96.63;101702.83;1651400;85;20544;-81
2021/09/21 05:16:42;;;;;;;;;;;;;;;10.17;96.68;101707.84;1651320;85;20123;-78
2021/09/21 05:19:11;;;;;;;;;;;;;;;10.18;95.96;101707.75;1651465;87;20172;-80
2021/09/21 05:21:40;;;;;;;;;;;;;;;10.22;95.59;101709.75;1626271;86;20176;-78
2021/09/21 05:24:08;;;;;;;;;;;;;;;10.24;95.61;101710.08;1639425;86;20484;-79
2021/09/21 05:26:36;;;;;;;;;;;;;;;10.28;94.64;101713.34;1648521;86;20233;-81
2021/09/21 05:29:03;;;;;;;;;;;;;;;10.32;94.13;101717.48;1652558;86;20220;-81
2021/09/21 05:31:31;;;;;;;;;;;;;;;10.32;92.32;101718.32;1658592;86;20102;-76
2021/09/21 05:33:58;;;;;;;;;;;;;;;10.32;92.33;101720.92;1654410;86;20154;-78
2021/09/21 05:36:24;;;;;;;;;;;;;;;10.34;93.06;101724.27;1653998;86;20185;-78
2021/09/21 05:38:53;;;;;;;;;;;;;;;10.36;92.43;101722.45;1651009;86;21524;-79
2021/09/21 05:41:20;;;;;;;;;;;;;;;10.40;93.86;101729.16;1657060;86;20134;-80
2021/09/21 05:43:49;;;;;;;;;;;;;;;10.45;94.54;101738.03;1653010;86;20114;-76
2021/09/21 05:46:15;;;;;;;;;;;;;;;10.47;93.80;101729.25;1656084;86;20209;-79
2021/09/21 05:48:42;;;;;;;;;;;;;;;10.53;93.92;101730.25;1650773;86;20198;-79
2021/09/21 05:51:09;;;;;;;;;;;;;;;10.60;94.00;101735.53;1652676;86;21419;-80
2021/09/21 05:53:37;;;;;;;;;;;;;;;10.65;91.43;101730.58;1655152;85;20089;-79
2021/09/21 05:56:07;;;;;;;;;;;;;;;10.67;88.93;101730.03;1651959;85;20196;-80
2021/09/21 05:58:34;;;;;;;;;;;;;;;10.68;88.91;101733.86;1648017;86;20106;-81
2021/09/21 06:01:03;;;;;;;;;;;;;;;10.70;88.75;101733.31;1661139;85;20187;-82
2021/09/21 06:03:30;;;;;;;;;;;;;;;10.76;89.53;101735.61;1653103;84;21870;-81
2021/09/21 06:05:58;;;;;;;;;;;;;;;10.81;89.55;101735.39;1661962;84;20128;-81
2021/09/21 06:08:26;;;;;;;;;;;;;;;10.83;88.13;101736.14;1649815;86;20114;-81
2021/09/21 06:10:52;;;;;;;;;;;;;;;10.82;87.07;101738.34;1662455;86;20282;-80
2021/09/21 06:13:21;;;;;;;;;;;;;;;10.85;87.73;101745.53;1661866;85;20455;-81
2021/09/21 06:15:49;;;;;;;;;;;;;;;10.86;86.01;101745.92;1662507;86;21131;-78
2021/09/21 06:18:17;;;;;;;;;;;;;;;10.90;87.16;101751.36;1662730;86;20196;-80
2021/09/21 06:20:45;;;;;;;;;;;;;;;10.95;86.81;101753.70;1662069;86;20150;-81
2021/09/21 06:23:14;;;;;;;;;;;;;;;10.98;86.04;101762.19;1662258;86;20122;-80
2021/09/21 06:25:44;;;;;;;;;;;;;;;11.00;84.47;101757.77;1667444;85;20133;-79
2021/09/21 06:28:11;;;;;;;;;;;;;;;11.04;83.53;101770.15;1672365;85;21167;-82
2021/09/21 06:30:39;;;;;;;;;;;;;;;11.08;86.34;101762.56;1688995;84;20087;-76
2021/09/21 06:33:09;;;;;;;;;;;;;;;11.13;84.76;101762.73;1689228;84;20111;-80
2021/09/21 06:35:43;;;;;;;;;;;;;;;11.16;81.88;101765.63;1654291;85;20094;-83
2021/09/21 06:38:15;;;;;;;;;;;;;;;11.18;81.46;101773.33;1651502;86;20469;-82
2021/09/21 06:40:47;;;;;;;;;;;;;;;11.18;82.14;101776.77;1669793;84;21265;-82
2021/09/21 06:43:15;;;;;;;;;;;;;;;11.21;82.55;101780.97;1658821;85;20380;-83
2021/09/21 06:45:43;;;;;;;;;;;;;;;11.23;82.37;101786.95;1639075;86;20205;-80
2021/09/21 06:48:11;;;;;;;;;;;;;;;11.30;82.45;101784.39;1653455;84;20239;-80
2021/09/21 06:50:39;;;;;;;;;;;;;;;11.37;84.52;101776.21;1653791;86;20434;-78
2021/09/21 06:53:12;;;;;;;;;;;;;;;11.44;84.33;101790.58;1656104;85;21153;-79
2021/09/21 06:55:41;;;;;;;;;;;;;;;11.44;82.12;101794.48;1656457;86;20249;-82
2021/09/21 06:58:09;;;;;;;;;;;;;;;11.43;81.55;101799.28;1637328;86;20133;-82
2021/09/21 07:00:45;;;;;;;;;;;;;;;11.42;79.99;101798.89;1660304;86;20240;-80
2021/09/21 07:03:08;;;;;;;;;;;;;;;11.44;78.69;101810.07;1653939;86;20542;-81
2021/09/21 07:05:39;;;;;;;;;;;;;;;11.56;80.38;101807.28;1599471;88;21173;-77
2021/09/21 07:08:08;;;;;;;;;;;;;;;11.67;77.44;101809.73;1601231;89;20236;-82
2021/09/21 07:10:37;;;;;;;;;;;;;;;11.76;78.02;101815.39;1612997;86;20144;-82
2021/09/21 07:13:07;;;;;;;;;;;;;;;11.83;77.03;101808.95;1639353;86;20101;-83
2021/09/21 07:15:36;;;;;;;;;;;;;;;11.88;78.45;101812.98;1619278;88;20200;-81
2021/09/21 07:18:03;;;;;;;;;;;;;;;11.91;76.26;101807.61;1655441;85;21139;-80
2021/09/21 07:20:30;;;;;;;;;;;;;;;11.94;78.27;101804.84;1641956;85;20166;-78
2021/09/21 07:22:57;;;;;;;;;;;;;;;12.01;77.27;101814.00;1629788;85;20135;-79
2021/09/21 07:25:24;;;;;;;;;;;;;;;12.04;74.57;101822.95;1636097;86;20586;-82
2021/09/21 07:27:54;;;;;;;;;;;;;;;12.03;73.87;101825.64;1650290;85;20205;-83
2021/09/21 07:30:22;;;;;;;;;;;;;;;12.04;75.06;101824.25;1646991;86;20303;-77
2021/09/21 07:32:52;;;;;;;;;;;;;;;12.15;76.40;101824.52;1659299;86;20198;-82
2021/09/21 07:35:20;;;;;;;;;;;;;;;12.32;75.48;101835.30;1648094;85;20222;-81
2021/09/21 07:37:47;;;;;;;;;;;;;;;12.41;71.82;101839.18;1642814;87;20130;-83
2021/09/21 07:40:19;;;;;;;;;;;;;;;12.46;73.87;101830.64;1626800;86;20228;-79
2021/09/21 07:42:52;;;;;;;;;;;;;;;12.63;74.99;101828.80;1626827;86;20150;-83
2021/09/21 07:45:16;;;;;;;;;;;;;;;12.83;71.18;101830.25;1639167;85;20233;-83
2021/09/21 07:47:48;;;;;;;;;;;;;;;13.00;69.99;101831.45;1648560;86;20456;-76
2021/09/21 07:50:18;;;;;;;;;;;;;;;13.09;68.26;101834.00;1648278;86;20172;-84
2021/09/21 07:52:45;;;;;;;;;;;;;;;13.04;67.18;101836.02;1647996;86;20145;-78
2021/09/21 07:55:11;;;;;;;;;;;;;;;13.01;68.93;101829.69;1636072;86;21377;-81
2021/09/21 07:57:40;;;;;;;;;;;;;;;13.11;68.27;101832.98;1618861;88;20207;-82
2021/09/21 08:00:09;;;;;;;;;;;;;;;13.18;69.03;101829.56;1644641;85;20222;-80
2021/09/21 08:02:37;;;;;;;;;;;;;;;13.23;69.03;101828.84;1646272;85;20156;-79
2021/09/21 08:05:06;;;;;;;;;;;;;;;13.19;66.47;101833.85;1657084;85;20202;-79
2021/09/21 08:07:34;;;;;;;;;;;;;;;13.07;68.76;101828.86;1629123;86;21167;-78
2021/09/21 08:10:04;;;;;;;;;;;;;;;13.14;69.94;101828.08;1656037;85;20169;-84
2021/09/21 08:12:31;;;;;;;;;;;;;;;13.16;68.42;101831.42;1630695;86;20219;-85
2021/09/21 08:14:59;;;;;;;;;;;;;;;13.17;69.35;101834.41;1595963;87;20241;-80
2021/09/21 08:17:30;;;;;;;;;;;;;;;13.10;67.44;101835.69;1651332;86;20514;-80
2021/09/21 08:20:03;;;;;;;;;;;;;;;13.05;67.79;101828.09;1654209;85;20207;-84
2021/09/21 08:22:37;;;;;;;;;;;;;;;13.02;66.96;101818.31;1655569;84;20238;-84
2021/09/21 08:25:06;;;;;;;;;;;;;;;13.13;68.35;101824.62;1650236;86;20214;-78
2021/09/21 08:27:33;;;;;;;;;;;;;;;13.27;66.78;101820.38;1626577;87;20206;-78
2021/09/21 08:30:05;;;;;;;;;;;;;;;13.30;66.81;101832.77;1651912;86;20229;-80
2021/09/21 08:32:38;;;;;;;;;;;;;;;13.35;64.98;101839.00;1644316;86;23720;-85
2021/09/21 08:35:09;;;;;;;;;;;;;;;13.24;64.92;101840.95;1643701;87;20167;-78
2021/09/21 08:37:41;;;;;;;;;;;;;;;13.25;66.76;101834.80;1642770;86;20559;-83
2021/09/21 08:40:10;;;;;;;;;;;;;;;13.27;66.51;101843.39;1646341;86;20552;-78
2021/09/21 08:42:38;;;;;;;;;;;;;;;13.37;67.23;101836.67;1651477;86;20257;-82
2021/09/21 08:45:06;;;;;;;;;;;;;;;13.43;65.70;101838.11;1653966;85;21887;-78
2021/09/21 08:47:34;;;;;;;;;;;;;;;13.44;64.46;101833.24;1638103;85;20264;-77
2021/09/21 08:50:03;;;;;;;;;;;;;;;13.32;63.82;101836.13;1631514;85;20274;-79
2021/09/21 08:52:31;;;;;;;;;;;;;;;13.27;62.77;101835.56;1637495;85;20178;-86
2021/09/21 08:55:07;;;;;;;;;;;;;;;13.20;64.09;101843.36;1647657;85;20707;-77
2021/09/21 08:57:37;;;;;;;;;;;;;;;13.27;64.20;101830.81;1654162;85;21146;-79
2021/09/21 09:00:08;;;;;;;;;;;;;;;13.35;64.80;101829.42;1611753;87;20190;-80
2021/09/21 09:02:35;;;;;;;;;;;;;;;13.38;64.63;101833.15;1640362;85;20234;-85
2021/09/21 09:05:11;;;;;;;;;;;;;;;13.33;64.69;101829.14;1639034;85;20202;-82
2021/09/21 09:07:56;;;;;;;;;;;;;;;13.28;65.10;101827.25;1638250;85;20696;-79
2021/09/21 09:10:24;;;;;;;;;;;;;;;13.34;64.74;101823.82;1636142;85;21293;-81
2021/09/21 09:12:54;;;;;;;;;;;;;;;13.39;65.85;101820.95;1653103;85;20212;-77
2021/09/21 09:15:26;;;;;;;;;;;;;;;13.46;65.73;101823.12;1634369;85;20302;-79
2021/09/21 09:17:59;;;;;;;;;;;;;;;13.59;67.38;101813.61;1643361;85;20518;-80
2021/09/21 09:20:31;;;;;;;;;;;;;;;13.73;63.76;101817.53;1615453;86;20170;-78
2021/09/21 09:22:59;;;;;;;;;;;;;;;13.73;64.00;101814.08;1631656;88;21136;-81
2021/09/21 09:25:26;;;;;;;;;;;;;;;13.68;63.02;101823.97;1607227;88;20145;-82
2021/09/21 09:27:59;;;;;;;;;;;;;;;13.69;63.98;101825.16;1643848;86;20600;-80
2021/09/21 09:30:31;;;;;;;;;;;;;;;13.71;63.70;101809.44;1608823;88;20196;-77
2021/09/21 09:33:04;;;;;;;;;;;;;;;13.69;62.74;101820.41;1678205;85;21105;-84
2021/09/21 09:35:32;;;;;;;;;;;;;;;13.64;63.81;101824.61;1669358;85;21158;-81
2021/09/21 09:38:02;;;;;;;;;;;;;;;14.15;62.08;101830.18;1635363;87;20200;-78
2021/09/21 09:40:33;;;;;;;;;;;;;;;14.94;58.70;101828.55;1650841;87;20206;-80
2021/09/21 09:43:00;;;;;;;;;;;;;;;15.66;56.35;101829.37;1649898;86;20564;-83
2021/09/21 09:45:33;;;;;;;;;;;;;;;16.11;55.05;101817.47;1644879;86;20214;-83
2021/09/21 09:48:03;;;;;;;;;;;;;;;16.37;53.35;101819.05;1646595;86;22224;-81
2021/09/21 09:50:35;;;;;;;;;;;;;;;16.90;52.60;101823.05;1617621;88;20179;-83
2021/09/21 09:53:13;;;;;;;;;;;;;;;17.55;50.65;101817.24;1625183;87;20188;-78
2021/09/21 09:55:49;;;;;;;;;;;;;;;17.24;49.37;101820.51;1624870;87;20136;-78
2021/09/21 09:58:20;;;;;;;;;;;;;;;17.06;50.61;101819.27;1619269;88;20179;-82
2021/09/21 10:00:49;;;;;;;;;;;;;;;17.02;50.38;101821.76;1658623;85;21558;-77
2021/09/21 10:03:16;;;;;;;;;;;;;;;17.84;48.95;101824.17;1636769;86;20196;-81
2021/09/21 10:05:43;;;;;;;;;;;;;;;18.74;46.61;101819.13;1638468;86;20434;-78
2021/09/21 10:08:11;;;;;;;;;;;;;;;19.24;44.26;101824.17;1654788;85;20240;-79
2021/09/21 10:10:42;;;;;;;;;;;;;;;19.59;43.67;101821.20;1626278;85;20189;-84
2021/09/21 10:13:10;;;;;;;;;;;;;;;20.19;42.76;101815.89;1637423;84;21962;-79
2021/09/21 10:15:39;;;;;;;;;;;;;;;20.35;41.00;101825.94;1647206;86;21016;-79
2021/09/21 10:18:16;;;;;;;;;;;;;;;19.63;42.55;101821.28;1647061;87;20531;-82
2021/09/21 10:21:00;;;;;;;;;;;;;;;19.06;43.12;101816.47;1658669;86;20166;-78
2021/09/21 10:23:33;;;;;;;;;;;;;;;18.71;42.17;101822.02;1660802;84;20226;-85
2021/09/21 10:26:19;;;;;;;;;;;;;;;17.62;44.78;101821.08;1662360;83;21145;-84
2021/09/21 10:28:48;;;;;;;;;;;;;;;16.97;46.42;101821.28;1632523;85;20139;-80
2021/09/21 10:31:16;;;;;;;;;;;;;;;16.40;47.65;101837.63;1646201;86;20193;-83
2021/09/21 10:33:43;;;;;;;;;;;;;;;15.94;49.73;101832.21;1665056;85;20159;-78
2021/09/21 10:36:19;;;;;;;;;;;;;;;15.72;51.18;101835.95;1665681;85;20137;-77
2021/09/21 10:39:08;;;;;;;;;;;;;;;15.64;51.78;101836.93;1623180;87;22726;-81
2021/09/21 10:41:46;;;;;;;;;;;;;;;15.87;51.69;101827.88;1638004;85;20221;-80
2021/09/21 10:44:13;;;;;;;;;;;;;;;16.16;48.78;101831.53;1637905;85;20221;-78
2021/09/21 10:46:51;;;;;;;;;;;;;;;16.11;49.61;101825.33;1637998;85;20184;-79
2021/09/21 10:49:29;;;;;;;;;;;;;;;16.12;49.02;101833.52;1618151;88;20184;-80
2021/09/21 10:51:59;;;;;;;;;;;;;;;16.23;49.23;101824.92;1612483;88;21115;-75
2021/09/21 10:54:38;;;;;;;;;;;;;;;16.43;51.21;101834.82;1624861;87;20205;-76
2021/09/21 10:57:06;;;;;;;;;;;;;;;16.63;49.22;101835.53;1639333;87;20153;-79
2021/09/21 10:59:38;;;;;;;;;;;;;;;16.33;49.58;101830.72;1623609;86;20215;-80
2021/09/21 11:02:11;;;;;;;;;;;;;;;15.90;49.97;101825.50;1603999;88;20207;-80
2021/09/21 11:04:41;;;;;;;;;;;;;;;15.61;50.94;101831.44;1566902;90;20228;-78
2021/09/21 11:07:11;;;;;;;;;;;;;;;15.25;51.88;101838.66;1598946;89;20227;-79
2021/09/21 11:09:57;;;;;;;;;;;;;;;15.04;53.00;101837.94;1618472;87;20215;-83
2021/09/21 11:12:26;;;;;;;;;;;;;;;14.90;52.90;101835.41;1648245;86;20114;-83
2021/09/21 11:15:07;;;;;;;;;;;;;;;14.80;54.43;101831.25;1658264;86;20217;-80
2021/09/21 11:17:37;;;;;;;;;;;;;;;14.87;54.04;101831.20;1652213;84;21168;-80
2021/09/21 11:20:08;;;;;;;;;;;;;;;14.92;54.17;101838.28;1623742;87;20212;-80
2021/09/21 11:22:37;;;;;;;;;;;;;;;14.92;53.98;101838.28;1646590;85;20169;-79
2021/09/21 11:25:10;;;;;;;;;;;;;;;14.78;54.20;101832.64;1601997;88;20169;-85
2021/09/21 11:27:40;;;;;;;;;;;;;;;14.68;54.83;101836.78;1598074;87;20196;-83
2021/09/21 11:30:14;;;;;;;;;;;;;;;14.59;54.70;101834.77;1641661;86;21163;-80
2021/09/21 11:32:41;;;;;;;;;;;;;;;14.56;54.92;101835.42;1638144;85;20127;-82
2021/09/21 11:35:19;;;;;;;;;;;;;;;14.50;55.74;101835.36;1626980;88;20199;-80
2021/09/21 11:37:45;;;;;;;;;;;;;;;14.54;55.57;101830.78;1625181;88;20631;-83
2021/09/21 11:40:31;;;;;;;;;;;;;;;14.49;55.06;101829.75;1626838;88;20164;-80
2021/09/21 11:43:00;;;;;;;;;;;;;;;14.49;56.18;101831.52;1629708;88;21181;-81
2021/09/21 11:45:27;;;;;;;;;;;;;;;14.52;55.77;101820.41;1632266;86;20155;-83
2021/09/21 11:47:54;;;;;;;;;;;;;;;14.52;55.22;101815.19;1622381;88;20144;-78
2021/09/21 11:50:24;;;;;;;;;;;;;;;14.69;54.87;101814.95;1640270;87;20219;-83
2021/09/21 11:52:57;;;;;;;;;;;;;;;14.90;55.04;101814.50;1627090;88;20199;-79
2021/09/21 11:55:26;;;;;;;;;;;;;;;15.05;53.10;101818.70;1621069;88;21747;-80
2021/09/21 11:57:54;;;;;;;;;;;;;;;15.07;53.58;101806.36;1619054;86;20219;-75
2021/09/21 12:00:32;;;;;;;;;;;;;;;15.03;51.81;101816.67;1624043;87;20458;-80
2021/09/21 12:03:00;;;;;;;;;;;;;;;15.03;52.89;101814.88;1619653;86;20149;-81
2021/09/21 12:05:27;;;;;;;;;;;;;;;15.07;53.40;101815.52;1627192;87;20374;-81
2021/09/21 12:07:53;;;;;;;;;;;;;;;15.25;53.28;101810.38;1650157;86;21166;-82
2021/09/21 12:10:21;;;;;;;;;;;;;;;15.60;52.02;101814.55;1631890;86;20194;-78
2021/09/21 12:13:04;;;;;;;;;;;;;;;16.32;49.86;101817.24;1606372;89;20217;-82
2021/09/21 12:15:35;;;;;;;;;;;;;;;17.26;45.54;101812.87;1604575;88;20135;-81
2021/09/21 12:18:06;;;;;;;;;;;;;;;17.84;44.58;101811.89;1602682;89;20217;-79
2021/09/21 12:20:41;;;;;;;;;;;;;;;17.92;45.11;101809.52;1605294;89;20166;-81
2021/09/21 12:23:11;;;;;;;;;;;;;;;17.74;44.63;101810.13;1585050;88;20206;-83
2021/09/21 12:25:39;;;;;;;;;;;;;;;17.56;46.13;101811.05;1641873;86;20201;-82
2021/09/21 12:28:10;;;;;;;;;;;;;;;17.41;44.42;101808.27;1651575;86;20329;-76
2021/09/21 12:30:40;;;;;;;;;;;;;;;17.30;44.94;101809.08;1656724;85;20162;-80
2021/09/21 12:33:11;;;;;;;;;;;;;;;17.34;45.23;101806.58;1639638;86;21096;-79
2021/09/21 12:35:46;;;;;;;;;;;;;;;17.71;44.45;101798.05;1648345;86;20447;-79
2021/09/21 12:38:17;;;;;;;;;;;;;;;18.22;44.62;101808.05;1602371;88;20207;-82
2021/09/21 12:41:01;;;;;;;;;;;;;;;18.26;43.21;101801.56;1598461;88;20179;-77
2021/09/21 12:43:32;;;;;;;;;;;;;;;18.00;44.14;101799.70;1611366;87;20245;-78
2021/09/21 12:46:05;;;;;;;;;;;;;;;18.11;43.37;101797.55;1624049;87;21103;-77
2021/09/21 12:48:36;;;;;;;;;;;;;;;18.08;42.77;101798.63;1632022;85;20157;-85
2021/09/21 12:51:06;;;;;;;;;;;;;;;17.74;42.33;101801.73;1648838;86;20094;-79
2021/09/21 12:53:35;;;;;;;;;;;;;;;17.59;43.21;101802.09;1643471;86;20186;-82